sensor_id;sensor_type;location;lat;lon;timestamp;temperature;humidity
40964;DHT22;26693;51.168;4.138;2022-09-12T00:00:06;17.90;99.90
40964;DHT22;26693;51.168;4.138;2022-09-12T00:01:11;17.90;99.90
40964;DHT22;26693;51.168;4.138;2022-09-12T00:02:12;17.90;99.90
40964;DHT22;26693;51.168;4.138;2022-09-12T00:03:12;17.90;99.90
40964;DHT22;26693;51.168;4.138;2022-09-12T00:04:13;17.80;99.90
40964;DHT22;26693;51.168;4.138;2022-09-12T00:05:14;17.90;99.90
40964;DHT22;26693;51.168;4.138;2022-09-12T00:06:18;17.90;99.90
40964;DHT22;26693;51.168;4.138;2022-09-12T00:07:19;17.90;99.90
40964;DHT22;26693;51.168;4.138;2022-09-12T00:08:20;17.90;99.90
40964;DHT22;26693;51.168;4.138;2022-09-12T00:09:20;18.00;99.90
40964;DHT22;26693;51.168;4.138;2022-09-12T00:10:21;18.10;99.90
40964;DHT22;26693;51.168;4.138;2022-09-12T00:11:21;18.20;99.90
40964;DHT22;26693;51.168;4.138;2022-09-12T00:12:22;18.30;99.90
40964;DHT22;26693;51.168;4.138;2022-09-12T00:13:22;18.30;99.90
40964;DHT22;26693;51.168;4.138;2022-09-12T00:14:23;18.30;99.90
40964;DHT22;26693;51.168;4.138;2022-09-12T00:15:23;18.20;99.90
40964;DHT22;26693;51.168;4.138;2022-09-12T00:16:24;18.10;99.90
40964;DHT22;26693;51.168;4.138;2022-09-12T00:17:25;18.30;99.90
40964;DHT22;26693;51.168;4.138;2022-09-12T00:18:26;18.20;99.90
40964;DHT22;26693;51.168;4.138;2022-09-12T00:19:27;18.40;99.90
40964;DHT22;26693;51.168;4.138;2022-09-12T00:20:28;18.40;99.90
40964;DHT22;26693;51.168;4.138;2022-09-12T00:21:28;18.40;99.90
40964;DHT22;26693;51.168;4.138;2022-09-12T00:22:29;18.40;99.90
40964;DHT22;26693;51.168;4.138;2022-09-12T00:23:30;18.30;99.90
40964;DHT22;26693;51.168;4.138;2022-09-12T00:24:31;18.30;99.90
40964;DHT22;26693;51.168;4.138;2022-09-12T00:25:33;18.30;99.90
40964;DHT22;26693;51.168;4.138;2022-09-12T00:26:33;18.20;99.90
40964;DHT22;26693;51.168;4.138;2022-09-12T00:27:34;18.10;99.90
40964;DHT22;26693;51.168;4.138;2022-09-12T00:28:35;18.10;99.90
40964;DHT22;26693;51.168;4.138;2022-09-12T00:29:36;18.10;99.90
40964;DHT22;26693;51.168;4.138;2022-09-12T00:30:43;18.20;99.90
40964;DHT22;26693;51.168;4.138;2022-09-12T00:31:43;18.20;99.90
40964;DHT22;26693;51.168;4.138;2022-09-12T00:32:44;18.10;99.90
40964;DHT22;26693;51.168;4.138;2022-09-12T00:33:44;18.10;99.90
40964;DHT22;26693;51.168;4.138;2022-09-12T00:34:45;18.10;99.90
40964;DHT22;26693;51.168;4.138;2022-09-12T00:35:47;18.00;99.90
40964;DHT22;26693;51.168;4.138;2022-09-12T00:36:48;18.00;99.90
40964;DHT22;26693;51.168;4.138;2022-09-12T00:37:49;18.00;99.90
40964;DHT22;26693;51.168;4.138;2022-09-12T00:38:50;17.90;99.90
40964;DHT22;26693;51.168;4.138;2022-09-12T00:39:50;17.90;99.90
40964;DHT22;26693;51.168;4.138;2022-09-12T00:40:51;17.80;99.90
40964;DHT22;26693;51.168;4.138;2022-09-12T00:41:51;17.80;99.90
40964;DHT22;26693;51.168;4.138;2022-09-12T00:42:52;17.70;99.90
40964;DHT22;26693;51.168;4.138;2022-09-12T00:43:54;17.70;99.90
40964;DHT22;26693;51.168;4.138;2022-09-12T00:44:55;17.80;99.90
40964;DHT22;26693;51.168;4.138;2022-09-12T00:45:59;17.90;99.90
40964;DHT22;26693;51.168;4.138;2022-09-12T00:47:03;17.90;99.90
40964;DHT22;26693;51.168;4.138;2022-09-12T00:48:05;18.00;99.90
40964;DHT22;26693;51.168;4.138;2022-09-12T00:49:13;17.90;99.90
40964;DHT22;26693;51.168;4.138;2022-09-12T00:50:14;17.80;99.90
40964;DHT22;26693;51.168;4.138;2022-09-12T00:51:15;17.80;99.90
40964;DHT22;26693;51.168;4.138;2022-09-12T00:52:19;17.70;99.90
40964;DHT22;26693;51.168;4.138;2022-09-12T00:53:20;17.70;99.90
40964;DHT22;26693;51.168;4.138;2022-09-12T00:54:23;17.70;99.90
40964;DHT22;26693;51.168;4.138;2022-09-12T00:55:27;17.70;99.90
40964;DHT22;26693;51.168;4.138;2022-09-12T00:56:31;17.70;99.90
40964;DHT22;26693;51.168;4.138;2022-09-12T00:57:33;17.70;99.90
40964;DHT22;26693;51.168;4.138;2022-09-12T00:58:42;17.70;99.90
40964;DHT22;26693;51.168;4.138;2022-09-12T00:59:45;17.80;99.90
40964;DHT22;26693;51.168;4.138;2022-09-12T01:00:46;17.80;99.90
40964;DHT22;26693;51.168;4.138;2022-09-12T01:01:47;17.80;99.90
40964;DHT22;26693;51.168;4.138;2022-09-12T01:02:56;17.90;99.90
40964;DHT22;26693;51.168;4.138;2022-09-12T01:03:58;17.90;99.90
40964;DHT22;26693;51.168;4.138;2022-09-12T01:04:58;18.00;99.90
40964;DHT22;26693;51.168;4.138;2022-09-12T01:06:19;17.90;99.90
40964;DHT22;26693;51.168;4.138;2022-09-12T01:07:20;17.90;99.90
40964;DHT22;26693;51.168;4.138;2022-09-12T01:08:21;17.90;99.90
40964;DHT22;26693;51.168;4.138;2022-09-12T01:09:22;17.80;99.90
40964;DHT22;26693;51.168;4.138;2022-09-12T01:10:23;17.80;99.90
40964;DHT22;26693;51.168;4.138;2022-09-12T01:11:23;17.90;99.90
40964;DHT22;26693;51.168;4.138;2022-09-12T01:12:24;17.80;99.90
40964;DHT22;26693;51.168;4.138;2022-09-12T01:13:25;17.90;99.90
40964;DHT22;26693;51.168;4.138;2022-09-12T01:14:26;17.90;99.90
40964;DHT22;26693;51.168;4.138;2022-09-12T01:15:27;17.90;99.90
40964;DHT22;26693;51.168;4.138;2022-09-12T01:16:27;17.90;99.90
40964;DHT22;26693;51.168;4.138;2022-09-12T01:17:30;17.90;99.90
40964;DHT22;26693;51.168;4.138;2022-09-12T01:21:13;17.90;99.90
40964;DHT22;26693;51.168;4.138;2022-09-12T01:27:40;18.20;99.90
40964;DHT22;26693;51.168;4.138;2022-09-12T01:31:05;17.80;99.90
40964;DHT22;26693;51.168;4.138;2022-09-12T01:32:09;17.70;99.90
40964;DHT22;26693;51.168;4.138;2022-09-12T01:34:25;17.80;99.90
40964;DHT22;26693;51.168;4.138;2022-09-12T01:36:39;17.80;99.90
40964;DHT22;26693;51.168;4.138;2022-09-12T01:37:49;17.80;99.90
40964;DHT22;26693;51.168;4.138;2022-09-12T01:39:00;17.80;99.90
40964;DHT22;26693;51.168;4.138;2022-09-12T01:41:26;17.80;99.90
40964;DHT22;26693;51.168;4.138;2022-09-12T01:43:43;17.90;99.90
40964;DHT22;26693;51.168;4.138;2022-09-12T01:44:59;17.80;99.90
40964;DHT22;26693;51.168;4.138;2022-09-12T01:46:08;18.00;99.90
40964;DHT22;26693;51.168;4.138;2022-09-12T01:47:11;18.00;99.90
40964;DHT22;26693;51.168;4.138;2022-09-12T01:48:18;17.90;99.90
40964;DHT22;26693;51.168;4.138;2022-09-12T01:50:27;17.80;99.90
40964;DHT22;26693;51.168;4.138;2022-09-12T01:51:33;17.80;99.90
40964;DHT22;26693;51.168;4.138;2022-09-12T01:52:54;17.70;99.90
40964;DHT22;26693;51.168;4.138;2022-09-12T01:53:58;17.80;99.90
40964;DHT22;26693;51.168;4.138;2022-09-12T01:55:15;17.80;99.90
40964;DHT22;26693;51.168;4.138;2022-09-12T01:56:22;17.80;99.90
40964;DHT22;26693;51.168;4.138;2022-09-12T01:57:32;17.70;99.90
40964;DHT22;26693;51.168;4.138;2022-09-12T01:58:43;17.70;99.90
40964;DHT22;26693;51.168;4.138;2022-09-12T01:59:46;17.70;99.90
40964;DHT22;26693;51.168;4.138;2022-09-12T02:02:24;17.60;99.90
40964;DHT22;26693;51.168;4.138;2022-09-12T02:03:28;17.60;99.90
40964;DHT22;26693;51.168;4.138;2022-09-12T02:04:32;17.50;99.90
40964;DHT22;26693;51.168;4.138;2022-09-12T02:05:36;17.50;99.90
40964;DHT22;26693;51.168;4.138;2022-09-12T02:06:42;17.50;99.90
40964;DHT22;26693;51.168;4.138;2022-09-12T02:07:46;17.50;99.90
40964;DHT22;26693;51.168;4.138;2022-09-12T02:08:50;17.50;99.90
40964;DHT22;26693;51.168;4.138;2022-09-12T02:10:09;17.50;99.90
40964;DHT22;26693;51.168;4.138;2022-09-12T02:11:11;17.50;99.90
40964;DHT22;26693;51.168;4.138;2022-09-12T02:12:12;17.50;99.90
40964;DHT22;26693;51.168;4.138;2022-09-12T02:13:20;17.40;99.90
40964;DHT22;26693;51.168;4.138;2022-09-12T02:14:23;17.40;99.90
40964;DHT22;26693;51.168;4.138;2022-09-12T02:15:31;17.40;99.90
40964;DHT22;26693;51.168;4.138;2022-09-12T02:16:42;17.30;99.90
40964;DHT22;26693;51.168;4.138;2022-09-12T02:17:44;17.30;99.90
40964;DHT22;26693;51.168;4.138;2022-09-12T02:18:54;17.30;99.90
40964;DHT22;26693;51.168;4.138;2022-09-12T02:20:01;17.30;99.90
40964;DHT22;26693;51.168;4.138;2022-09-12T02:21:02;17.30;99.90
40964;DHT22;26693;51.168;4.138;2022-09-12T02:22:04;17.30;99.90
40964;DHT22;26693;51.168;4.138;2022-09-12T02:23:06;17.30;99.90
40964;DHT22;26693;51.168;4.138;2022-09-12T02:24:08;17.30;99.90
40964;DHT22;26693;51.168;4.138;2022-09-12T02:25:09;17.30;99.90
40964;DHT22;26693;51.168;4.138;2022-09-12T02:26:17;17.30;99.90
40964;DHT22;26693;51.168;4.138;2022-09-12T02:28:30;17.10;99.90
40964;DHT22;26693;51.168;4.138;2022-09-12T02:29:32;17.20;99.90
40964;DHT22;26693;51.168;4.138;2022-09-12T02:30:35;17.10;99.90
40964;DHT22;26693;51.168;4.138;2022-09-12T02:31:43;17.10;99.90
40964;DHT22;26693;51.168;4.138;2022-09-12T02:34:54;17.20;99.90
40964;DHT22;26693;51.168;4.138;2022-09-12T02:36:33;17.30;99.90
40964;DHT22;26693;51.168;4.138;2022-09-12T02:38:32;17.30;99.90
40964;DHT22;26693;51.168;4.138;2022-09-12T02:39:34;17.40;99.90
40964;DHT22;26693;51.168;4.138;2022-09-12T02:40:35;17.40;99.90
40964;DHT22;26693;51.168;4.138;2022-09-12T02:41:35;17.40;99.90
40964;DHT22;26693;51.168;4.138;2022-09-12T02:42:36;17.30;99.90
40964;DHT22;26693;51.168;4.138;2022-09-12T02:43:37;17.30;99.90
40964;DHT22;26693;51.168;4.138;2022-09-12T02:44:38;17.30;99.90
40964;DHT22;26693;51.168;4.138;2022-09-12T02:45:38;17.30;99.90
40964;DHT22;26693;51.168;4.138;2022-09-12T02:46:43;17.30;99.90
40964;DHT22;26693;51.168;4.138;2022-09-12T02:47:46;17.30;99.90
40964;DHT22;26693;51.168;4.138;2022-09-12T02:48:48;17.30;99.90
40964;DHT22;26693;51.168;4.138;2022-09-12T02:49:48;17.30;99.90
40964;DHT22;26693;51.168;4.138;2022-09-12T02:50:49;17.30;99.90
40964;DHT22;26693;51.168;4.138;2022-09-12T02:51:50;17.20;99.90
40964;DHT22;26693;51.168;4.138;2022-09-12T02:52:50;17.20;99.90
40964;DHT22;26693;51.168;4.138;2022-09-12T02:53:53;17.20;99.90
40964;DHT22;26693;51.168;4.138;2022-09-12T02:54:54;17.30;99.90
40964;DHT22;26693;51.168;4.138;2022-09-12T02:55:56;17.30;99.90
40964;DHT22;26693;51.168;4.138;2022-09-12T02:56:57;17.20;99.90
40964;DHT22;26693;51.168;4.138;2022-09-12T02:57:58;17.30;99.90
40964;DHT22;26693;51.168;4.138;2022-09-12T02:59:00;17.30;99.90
40964;DHT22;26693;51.168;4.138;2022-09-12T03:00:03;17.30;99.90
40964;DHT22;26693;51.168;4.138;2022-09-12T03:02:28;17.20;99.90
40964;DHT22;26693;51.168;4.138;2022-09-12T03:04:07;17.20;99.90
40964;DHT22;26693;51.168;4.138;2022-09-12T03:05:16;17.10;99.90
40964;DHT22;26693;51.168;4.138;2022-09-12T03:06:38;17.10;99.90
40964;DHT22;26693;51.168;4.138;2022-09-12T03:07:52;17.10;99.90
40964;DHT22;26693;51.168;4.138;2022-09-12T03:09:08;17.10;99.90
40964;DHT22;26693;51.168;4.138;2022-09-12T03:10:21;17.00;99.90
40964;DHT22;26693;51.168;4.138;2022-09-12T03:12:38;17.00;99.90
40964;DHT22;26693;51.168;4.138;2022-09-12T03:13:49;16.90;99.90
40964;DHT22;26693;51.168;4.138;2022-09-12T03:17:27;16.90;99.90
40964;DHT22;26693;51.168;4.138;2022-09-12T03:19:51;16.90;99.90
40964;DHT22;26693;51.168;4.138;2022-09-12T03:22:21;17.00;99.90
40964;DHT22;26693;51.168;4.138;2022-09-12T03:23:24;16.90;99.90
40964;DHT22;26693;51.168;4.138;2022-09-12T03:25:39;16.90;99.90
40964;DHT22;26693;51.168;4.138;2022-09-12T03:26:43;16.90;99.90
40964;DHT22;26693;51.168;4.138;2022-09-12T03:27:45;16.90;99.90
40964;DHT22;26693;51.168;4.138;2022-09-12T03:28:47;16.90;99.90
40964;DHT22;26693;51.168;4.138;2022-09-12T03:29:48;16.90;99.90
40964;DHT22;26693;51.168;4.138;2022-09-12T03:30:50;16.80;99.90
40964;DHT22;26693;51.168;4.138;2022-09-12T03:31:53;16.90;99.90
40964;DHT22;26693;51.168;4.138;2022-09-12T03:32:54;16.90;99.90
40964;DHT22;26693;51.168;4.138;2022-09-12T03:33:54;17.00;99.90
40964;DHT22;26693;51.168;4.138;2022-09-12T03:34:55;16.90;99.90
40964;DHT22;26693;51.168;4.138;2022-09-12T03:35:55;17.00;99.90
40964;DHT22;26693;51.168;4.138;2022-09-12T03:36:56;16.90;99.90
40964;DHT22;26693;51.168;4.138;2022-09-12T03:37:57;16.90;99.90
40964;DHT22;26693;51.168;4.138;2022-09-12T03:38:57;16.80;99.90
40964;DHT22;26693;51.168;4.138;2022-09-12T03:39:58;16.90;99.90
40964;DHT22;26693;51.168;4.138;2022-09-12T03:40:59;16.80;99.90
40964;DHT22;26693;51.168;4.138;2022-09-12T03:42:00;16.90;99.90
40964;DHT22;26693;51.168;4.138;2022-09-12T03:43:00;16.90;99.90
40964;DHT22;26693;51.168;4.138;2022-09-12T03:44:01;17.00;99.90
40964;DHT22;26693;51.168;4.138;2022-09-12T03:45:02;17.00;99.90
40964;DHT22;26693;51.168;4.138;2022-09-12T03:46:03;17.00;99.90
40964;DHT22;26693;51.168;4.138;2022-09-12T03:47:03;16.90;99.90
40964;DHT22;26693;51.168;4.138;2022-09-12T03:48:04;17.00;99.90
40964;DHT22;26693;51.168;4.138;2022-09-12T03:49:05;17.00;99.90
40964;DHT22;26693;51.168;4.138;2022-09-12T03:50:06;16.80;99.90
40964;DHT22;26693;51.168;4.138;2022-09-12T03:51:07;16.80;99.90
40964;DHT22;26693;51.168;4.138;2022-09-12T03:52:08;16.70;99.90
40964;DHT22;26693;51.168;4.138;2022-09-12T03:53:09;16.70;99.90
40964;DHT22;26693;51.168;4.138;2022-09-12T03:54:09;16.80;99.90
40964;DHT22;26693;51.168;4.138;2022-09-12T03:55:10;16.80;99.90
40964;DHT22;26693;51.168;4.138;2022-09-12T03:56:12;16.70;99.90
40964;DHT22;26693;51.168;4.138;2022-09-12T03:57:13;16.70;99.90
40964;DHT22;26693;51.168;4.138;2022-09-12T03:58:14;16.80;99.90
40964;DHT22;26693;51.168;4.138;2022-09-12T03:59:14;16.80;99.90
40964;DHT22;26693;51.168;4.138;2022-09-12T04:00:14;16.80;99.90
40964;DHT22;26693;51.168;4.138;2022-09-12T04:01:16;16.80;99.90
40964;DHT22;26693;51.168;4.138;2022-09-12T04:02:17;16.80;99.90
40964;DHT22;26693;51.168;4.138;2022-09-12T04:03:17;16.80;99.90
40964;DHT22;26693;51.168;4.138;2022-09-12T04:04:18;16.80;99.90
40964;DHT22;26693;51.168;4.138;2022-09-12T04:05:19;16.80;99.90
40964;DHT22;26693;51.168;4.138;2022-09-12T04:06:20;16.80;99.90
40964;DHT22;26693;51.168;4.138;2022-09-12T04:07:21;16.90;99.90
40964;DHT22;26693;51.168;4.138;2022-09-12T04:08:21;16.80;99.90
40964;DHT22;26693;51.168;4.138;2022-09-12T04:09:22;16.80;99.90
40964;DHT22;26693;51.168;4.138;2022-09-12T04:10:22;16.60;99.90
40964;DHT22;26693;51.168;4.138;2022-09-12T04:11:22;16.60;99.90
40964;DHT22;26693;51.168;4.138;2022-09-12T04:12:23;16.60;99.90
40964;DHT22;26693;51.168;4.138;2022-09-12T04:13:24;16.50;99.90
40964;DHT22;26693;51.168;4.138;2022-09-12T04:14:24;16.50;99.90
40964;DHT22;26693;51.168;4.138;2022-09-12T04:15:25;16.50;99.90
40964;DHT22;26693;51.168;4.138;2022-09-12T04:16:25;16.60;99.90
40964;DHT22;26693;51.168;4.138;2022-09-12T04:17:26;16.50;99.90
40964;DHT22;26693;51.168;4.138;2022-09-12T04:18:26;16.60;99.90
40964;DHT22;26693;51.168;4.138;2022-09-12T04:19:27;16.50;99.90
40964;DHT22;26693;51.168;4.138;2022-09-12T04:20:27;16.50;99.90
40964;DHT22;26693;51.168;4.138;2022-09-12T04:21:28;16.50;99.90
40964;DHT22;26693;51.168;4.138;2022-09-12T04:22:28;16.50;99.90
40964;DHT22;26693;51.168;4.138;2022-09-12T04:23:31;16.60;99.90
40964;DHT22;26693;51.168;4.138;2022-09-12T04:24:31;16.60;99.90
40964;DHT22;26693;51.168;4.138;2022-09-12T04:25:32;16.50;99.90
40964;DHT22;26693;51.168;4.138;2022-09-12T04:26:33;16.50;99.90
40964;DHT22;26693;51.168;4.138;2022-09-12T04:27:33;16.40;99.90
40964;DHT22;26693;51.168;4.138;2022-09-12T04:28:34;16.40;99.90
40964;DHT22;26693;51.168;4.138;2022-09-12T04:29:35;16.30;99.90
40964;DHT22;26693;51.168;4.138;2022-09-12T04:30:36;16.40;99.90
40964;DHT22;26693;51.168;4.138;2022-09-12T04:31:37;16.40;99.90
40964;DHT22;26693;51.168;4.138;2022-09-12T04:32:37;16.40;99.90
40964;DHT22;26693;51.168;4.138;2022-09-12T04:33:38;16.40;99.90
40964;DHT22;26693;51.168;4.138;2022-09-12T04:34:38;16.40;99.90
40964;DHT22;26693;51.168;4.138;2022-09-12T04:35:39;16.50;99.90
40964;DHT22;26693;51.168;4.138;2022-09-12T04:36:40;16.40;99.90
40964;DHT22;26693;51.168;4.138;2022-09-12T04:37:41;16.50;99.90
40964;DHT22;26693;51.168;4.138;2022-09-12T04:38:42;16.40;99.90
40964;DHT22;26693;51.168;4.138;2022-09-12T04:39:43;16.40;99.90
40964;DHT22;26693;51.168;4.138;2022-09-12T04:40:44;16.30;99.90
40964;DHT22;26693;51.168;4.138;2022-09-12T04:41:44;16.40;99.90
40964;DHT22;26693;51.168;4.138;2022-09-12T04:42:45;16.40;99.90
40964;DHT22;26693;51.168;4.138;2022-09-12T04:43:46;16.40;99.90
40964;DHT22;26693;51.168;4.138;2022-09-12T04:44:47;16.50;99.90
40964;DHT22;26693;51.168;4.138;2022-09-12T04:45:47;16.40;99.90
40964;DHT22;26693;51.168;4.138;2022-09-12T04:46:48;16.50;99.90
40964;DHT22;26693;51.168;4.138;2022-09-12T04:47:48;16.50;99.90
40964;DHT22;26693;51.168;4.138;2022-09-12T04:48:49;16.40;99.90
40964;DHT22;26693;51.168;4.138;2022-09-12T04:49:49;16.50;99.90
40964;DHT22;26693;51.168;4.138;2022-09-12T04:50:50;16.60;99.90
40964;DHT22;26693;51.168;4.138;2022-09-12T04:51:51;16.50;99.90
40964;DHT22;26693;51.168;4.138;2022-09-12T04:52:52;16.50;99.90
40964;DHT22;26693;51.168;4.138;2022-09-12T04:53:54;16.40;99.90
40964;DHT22;26693;51.168;4.138;2022-09-12T04:54:55;16.40;99.90
40964;DHT22;26693;51.168;4.138;2022-09-12T04:56:00;16.30;99.90
40964;DHT22;26693;51.168;4.138;2022-09-12T04:57:00;16.30;99.90
40964;DHT22;26693;51.168;4.138;2022-09-12T04:58:01;16.30;99.90
40964;DHT22;26693;51.168;4.138;2022-09-12T04:59:01;16.30;99.90
40964;DHT22;26693;51.168;4.138;2022-09-12T05:00:03;16.40;99.90
40964;DHT22;26693;51.168;4.138;2022-09-12T05:02:08;16.30;99.90
40964;DHT22;26693;51.168;4.138;2022-09-12T05:03:09;16.30;99.90
40964;DHT22;26693;51.168;4.138;2022-09-12T05:04:10;16.40;99.90
40964;DHT22;26693;51.168;4.138;2022-09-12T05:05:10;16.30;99.90
40964;DHT22;26693;51.168;4.138;2022-09-12T05:06:14;16.20;99.90
40964;DHT22;26693;51.168;4.138;2022-09-12T05:07:15;16.20;99.90
40964;DHT22;26693;51.168;4.138;2022-09-12T05:08:15;16.10;99.90
40964;DHT22;26693;51.168;4.138;2022-09-12T05:09:16;16.10;99.90
40964;DHT22;26693;51.168;4.138;2022-09-12T05:10:17;16.00;99.90
40964;DHT22;26693;51.168;4.138;2022-09-12T05:11:22;15.90;99.90
40964;DHT22;26693;51.168;4.138;2022-09-12T05:12:23;15.90;99.90
40964;DHT22;26693;51.168;4.138;2022-09-12T05:13:23;16.00;99.90
40964;DHT22;26693;51.168;4.138;2022-09-12T05:14:24;15.90;99.90
40964;DHT22;26693;51.168;4.138;2022-09-12T05:15:24;15.90;99.90
40964;DHT22;26693;51.168;4.138;2022-09-12T05:16:26;15.90;99.90
40964;DHT22;26693;51.168;4.138;2022-09-12T05:17:29;15.80;99.90
40964;DHT22;26693;51.168;4.138;2022-09-12T05:18:30;15.80;99.90
40964;DHT22;26693;51.168;4.138;2022-09-12T05:19:31;15.90;99.90
40964;DHT22;26693;51.168;4.138;2022-09-12T05:20:32;15.90;99.90
40964;DHT22;26693;51.168;4.138;2022-09-12T05:21:33;15.90;99.90
40964;DHT22;26693;51.168;4.138;2022-09-12T05:22:33;15.90;99.90
40964;DHT22;26693;51.168;4.138;2022-09-12T05:23:34;15.90;99.90
40964;DHT22;26693;51.168;4.138;2022-09-12T05:24:35;15.90;99.90
40964;DHT22;26693;51.168;4.138;2022-09-12T05:25:38;16.00;99.90
40964;DHT22;26693;51.168;4.138;2022-09-12T05:26:39;16.10;99.90
40964;DHT22;26693;51.168;4.138;2022-09-12T05:27:39;16.10;99.90
40964;DHT22;26693;51.168;4.138;2022-09-12T05:28:40;16.10;99.90
40964;DHT22;26693;51.168;4.138;2022-09-12T05:29:40;16.10;99.90
40964;DHT22;26693;51.168;4.138;2022-09-12T05:30:42;16.10;99.90
40964;DHT22;26693;51.168;4.138;2022-09-12T05:31:42;16.20;99.90
40964;DHT22;26693;51.168;4.138;2022-09-12T05:32:43;16.20;99.90
40964;DHT22;26693;51.168;4.138;2022-09-12T05:33:44;16.20;99.90
40964;DHT22;26693;51.168;4.138;2022-09-12T05:34:45;16.20;99.90
40964;DHT22;26693;51.168;4.138;2022-09-12T05:35:49;16.20;99.90
40964;DHT22;26693;51.168;4.138;2022-09-12T05:36:50;16.10;99.90
40964;DHT22;26693;51.168;4.138;2022-09-12T05:37:50;16.10;99.90
40964;DHT22;26693;51.168;4.138;2022-09-12T05:38:51;16.10;99.90
40964;DHT22;26693;51.168;4.138;2022-09-12T05:39:52;16.10;99.90
40964;DHT22;26693;51.168;4.138;2022-09-12T05:40:53;16.10;99.90
40964;DHT22;26693;51.168;4.138;2022-09-12T05:41:53;16.20;99.90
40964;DHT22;26693;51.168;4.138;2022-09-12T05:42:55;16.20;99.90
40964;DHT22;26693;51.168;4.138;2022-09-12T05:43:56;16.10;99.90
40964;DHT22;26693;51.168;4.138;2022-09-12T05:44:57;16.10;99.90
40964;DHT22;26693;51.168;4.138;2022-09-12T05:46:01;16.20;99.90
40964;DHT22;26693;51.168;4.138;2022-09-12T05:47:02;16.10;99.90
40964;DHT22;26693;51.168;4.138;2022-09-12T05:48:02;16.10;99.90
40964;DHT22;26693;51.168;4.138;2022-09-12T05:49:03;16.10;99.90
40964;DHT22;26693;51.168;4.138;2022-09-12T05:50:04;16.10;99.90
40964;DHT22;26693;51.168;4.138;2022-09-12T05:51:14;16.20;99.90
40964;DHT22;26693;51.168;4.138;2022-09-12T05:52:21;16.20;99.90
40964;DHT22;26693;51.168;4.138;2022-09-12T05:53:21;16.30;99.90
40964;DHT22;26693;51.168;4.138;2022-09-12T05:54:22;16.30;99.90
40964;DHT22;26693;51.168;4.138;2022-09-12T05:55:23;16.20;99.90
40964;DHT22;26693;51.168;4.138;2022-09-12T05:56:25;16.30;99.90
40964;DHT22;26693;51.168;4.138;2022-09-12T05:57:29;16.40;99.90
40964;DHT22;26693;51.168;4.138;2022-09-12T05:58:29;16.40;99.90
40964;DHT22;26693;51.168;4.138;2022-09-12T05:59:30;16.40;99.90
40964;DHT22;26693;51.168;4.138;2022-09-12T06:00:32;16.50;99.90
40964;DHT22;26693;51.168;4.138;2022-09-12T06:01:35;16.50;99.90
40964;DHT22;26693;51.168;4.138;2022-09-12T06:02:36;16.60;99.90
40964;DHT22;26693;51.168;4.138;2022-09-12T06:03:56;16.60;99.90
40964;DHT22;26693;51.168;4.138;2022-09-12T06:04:58;16.50;99.90
40964;DHT22;26693;51.168;4.138;2022-09-12T06:06:03;16.50;99.90
40964;DHT22;26693;51.168;4.138;2022-09-12T06:07:50;16.60;99.90
40964;DHT22;26693;51.168;4.138;2022-09-12T06:16:11;16.50;99.90
40964;DHT22;26693;51.168;4.138;2022-09-12T06:17:08;16.70;99.90
40964;DHT22;26693;51.168;4.138;2022-09-12T06:28:48;16.90;99.90
40964;DHT22;26693;51.168;4.138;2022-09-12T06:29:49;16.70;99.90
40964;DHT22;26693;51.168;4.138;2022-09-12T06:30:50;16.60;99.90
40964;DHT22;26693;51.168;4.138;2022-09-12T06:32:06;16.60;99.90
40964;DHT22;26693;51.168;4.138;2022-09-12T06:33:51;16.60;99.90
40964;DHT22;26693;51.168;4.138;2022-09-12T06:34:52;16.50;99.90
40964;DHT22;26693;51.168;4.138;2022-09-12T06:35:53;16.50;99.90
40964;DHT22;26693;51.168;4.138;2022-09-12T06:36:54;16.50;99.90
40964;DHT22;26693;51.168;4.138;2022-09-12T06:37:55;16.50;99.90
40964;DHT22;26693;51.168;4.138;2022-09-12T06:38:59;16.60;99.90
40964;DHT22;26693;51.168;4.138;2022-09-12T06:40:00;16.50;99.90
40964;DHT22;26693;51.168;4.138;2022-09-12T06:41:05;16.50;99.90
40964;DHT22;26693;51.168;4.138;2022-09-12T06:42:06;16.50;99.90
40964;DHT22;26693;51.168;4.138;2022-09-12T06:43:07;16.60;99.90
40964;DHT22;26693;51.168;4.138;2022-09-12T06:44:08;16.70;99.90
40964;DHT22;26693;51.168;4.138;2022-09-12T06:45:10;16.70;99.90
40964;DHT22;26693;51.168;4.138;2022-09-12T06:46:10;16.70;99.90
40964;DHT22;26693;51.168;4.138;2022-09-12T06:47:12;16.80;99.90
40964;DHT22;26693;51.168;4.138;2022-09-12T06:48:12;16.70;99.90
40964;DHT22;26693;51.168;4.138;2022-09-12T06:49:13;16.80;99.90
40964;DHT22;26693;51.168;4.138;2022-09-12T06:50:14;16.80;99.90
40964;DHT22;26693;51.168;4.138;2022-09-12T06:51:15;16.80;99.90
40964;DHT22;26693;51.168;4.138;2022-09-12T06:52:16;16.80;99.90
40964;DHT22;26693;51.168;4.138;2022-09-12T06:53:17;16.80;99.90
40964;DHT22;26693;51.168;4.138;2022-09-12T06:54:17;16.80;99.90
40964;DHT22;26693;51.168;4.138;2022-09-12T06:55:19;16.80;99.90
40964;DHT22;26693;51.168;4.138;2022-09-12T06:56:20;16.90;99.90
40964;DHT22;26693;51.168;4.138;2022-09-12T06:57:21;16.80;99.90
40964;DHT22;26693;51.168;4.138;2022-09-12T06:58:27;16.80;99.90
40964;DHT22;26693;51.168;4.138;2022-09-12T06:59:27;16.80;99.90
40964;DHT22;26693;51.168;4.138;2022-09-12T07:00:28;16.90;99.90
40964;DHT22;26693;51.168;4.138;2022-09-12T07:01:29;16.90;99.90
40964;DHT22;26693;51.168;4.138;2022-09-12T07:02:30;16.80;99.90
40964;DHT22;26693;51.168;4.138;2022-09-12T07:03:31;16.80;99.90
40964;DHT22;26693;51.168;4.138;2022-09-12T07:04:32;16.90;99.90
40964;DHT22;26693;51.168;4.138;2022-09-12T07:05:36;16.90;99.90
40964;DHT22;26693;51.168;4.138;2022-09-12T07:06:37;16.90;99.90
40964;DHT22;26693;51.168;4.138;2022-09-12T07:07:39;16.90;99.90
40964;DHT22;26693;51.168;4.138;2022-09-12T07:08:39;16.90;99.90
40964;DHT22;26693;51.168;4.138;2022-09-12T07:09:40;17.10;99.90
40964;DHT22;26693;51.168;4.138;2022-09-12T07:10:40;17.10;99.90
40964;DHT22;26693;51.168;4.138;2022-09-12T07:11:41;17.10;99.90
40964;DHT22;26693;51.168;4.138;2022-09-12T07:12:41;17.20;99.90
40964;DHT22;26693;51.168;4.138;2022-09-12T07:13:43;17.20;99.90
40964;DHT22;26693;51.168;4.138;2022-09-12T07:14:44;17.30;99.90
40964;DHT22;26693;51.168;4.138;2022-09-12T07:15:44;17.30;99.90
40964;DHT22;26693;51.168;4.138;2022-09-12T07:16:48;17.40;99.90
40964;DHT22;26693;51.168;4.138;2022-09-12T07:18:00;17.60;99.90
40964;DHT22;26693;51.168;4.138;2022-09-12T07:19:28;17.60;99.90
40964;DHT22;26693;51.168;4.138;2022-09-12T07:20:36;17.50;99.90
40964;DHT22;26693;51.168;4.138;2022-09-12T07:21:46;17.40;99.90
40964;DHT22;26693;51.168;4.138;2022-09-12T07:22:53;17.50;99.90
40964;DHT22;26693;51.168;4.138;2022-09-12T07:24:06;17.50;99.90
40964;DHT22;26693;51.168;4.138;2022-09-12T07:25:08;17.50;99.90
40964;DHT22;26693;51.168;4.138;2022-09-12T07:26:09;17.50;99.90
40964;DHT22;26693;51.168;4.138;2022-09-12T07:27:10;17.50;99.90